<?xml version="1.0" encoding="UTF-8" standalone="no" ?>
<gpx xmlns="http://www.topografix.com/GPX/1/1" xmlns:xsi="http://www.w3.org/2001/XMLSchema-instance" xsi:schemaLocation="http://www.topografix.com/GPX/1/1 http://www.topografix.com/GPX/1/1/gpx.xsd" version="1.1" creator="VisuGPX - https://www.visugpx.com">
  <metadata>
    <name>Tour de France 2019</name>
    <desc><![CDATA[4272km en 2 mois en tandem avec notre petit chien dans le panier avant]]></desc>
  </metadata>
  <trk>
    <name><![CDATA[Tracé 20191117-084809]]></name>
    <trkseg>
      <trkpt lat="50.06812" lon="1.38587">
        <ele>13.43</ele>
        <time>2019-11-17T08:06:54Z</time>
      </trkpt>
      <trkpt lat="50.06677" lon="1.38492">
        <ele>17.001</ele>
        <time>2019-11-17T08:07:27Z</time>
      </trkpt>
      <trkpt lat="50.06609" lon="1.38544">
        <ele>11.255</ele>
        <time>2019-11-17T08:07:57Z</time>
      </trkpt>
      <trkpt lat="50.06604" lon="1.38757">
        <ele>6.786</ele>
        <time>2019-11-17T08:08:27Z</time>
      </trkpt>
      <trkpt lat="50.06566" lon="1.39">
        <ele>8.316</ele>
        <time>2019-11-17T08:09:00Z</time>
      </trkpt>
      <trkpt lat="50.06533" lon="1.39209">
        <ele>12.414</ele>
        <time>2019-11-17T08:09:30Z</time>
      </trkpt>
      <trkpt lat="50.06491" lon="1.39439">
        <ele>17.091</ele>
        <time>2019-11-17T08:10:03Z</time>
      </trkpt>
      <trkpt lat="50.06447" lon="1.3966">
        <ele>11.412</ele>
        <time>2019-11-17T08:10:33Z</time>
      </trkpt>
      <trkpt lat="50.06398" lon="1.39855">
        <ele>18.402</ele>
        <time>2019-11-17T08:11:03Z</time>
      </trkpt>
      <trkpt lat="50.06328" lon="1.40064">
        <ele>8.99</ele>
        <time>2019-11-17T08:11:36Z</time>
      </trkpt>
      <trkpt lat="50.06266" lon="1.40254">
        <ele>8.601</ele>
        <time>2019-11-17T08:12:06Z</time>
      </trkpt>
      <trkpt lat="50.06199" lon="1.40452">
        <ele>7.953</ele>
        <time>2019-11-17T08:12:36Z</time>
      </trkpt>
      <trkpt lat="50.06124" lon="1.4067">
        <ele>5.271</ele>
        <time>2019-11-17T08:13:09Z</time>
      </trkpt>
      <trkpt lat="50.06045" lon="1.40854">
        <ele>5.21</ele>
        <time>2019-11-17T08:13:39Z</time>
      </trkpt>
      <trkpt lat="50.05997" lon="1.41054">
        <ele>6.029</ele>
        <time>2019-11-17T08:14:12Z</time>
      </trkpt>
      <trkpt lat="50.06005" lon="1.41243">
        <ele>9.229</ele>
        <time>2019-11-17T08:14:42Z</time>
      </trkpt>
      <trkpt lat="50.05958" lon="1.41402">
        <ele>11.343</ele>
        <time>2019-11-17T08:15:12Z</time>
      </trkpt>
      <trkpt lat="50.05903" lon="1.4156">
        <ele>15.266</ele>
        <time>2019-11-17T08:15:45Z</time>
      </trkpt>
      <trkpt lat="50.0586" lon="1.41727">
        <ele>15.511</ele>
        <time>2019-11-17T08:16:15Z</time>
      </trkpt>
      <trkpt lat="50.05781" lon="1.41964">
        <ele>12.142</ele>
        <time>2019-11-17T08:16:48Z</time>
      </trkpt>
      <trkpt lat="50.05702" lon="1.42151">
        <ele>9.84</ele>
        <time>2019-11-17T08:17:18Z</time>
      </trkpt>
      <trkpt lat="50.05625" lon="1.42385">
        <ele>11.728</ele>
        <time>2019-11-17T08:17:48Z</time>
      </trkpt>
      <trkpt lat="50.05717" lon="1.424">
        <ele>12.27</ele>
        <time>2019-11-17T08:18:21Z</time>
      </trkpt>
      <trkpt lat="50.05842" lon="1.42392">
        <ele>12.485</ele>
        <time>2019-11-17T08:18:51Z</time>
      </trkpt>
      <trkpt lat="50.05955" lon="1.42378">
        <ele>18.058</ele>
        <time>2019-11-17T08:19:24Z</time>
      </trkpt>
      <trkpt lat="50.06058" lon="1.42382">
        <ele>22.536</ele>
        <time>2019-11-17T08:19:54Z</time>
      </trkpt>
      <trkpt lat="50.06161" lon="1.42403">
        <ele>20.814</ele>
        <time>2019-11-17T08:20:24Z</time>
      </trkpt>
      <trkpt lat="50.06253" lon="1.42467">
        <ele>19.086</ele>
        <time>2019-11-17T08:20:57Z</time>
      </trkpt>
      <trkpt lat="50.06314" lon="1.42567">
        <ele>29.755</ele>
        <time>2019-11-17T08:21:27Z</time>
      </trkpt>
      <trkpt lat="50.06395" lon="1.42685">
        <ele>29.985</ele>
        <time>2019-11-17T08:22:00Z</time>
      </trkpt>
      <trkpt lat="50.06453" lon="1.42752">
        <ele>29.654</ele>
        <time>2019-11-17T08:22:30Z</time>
      </trkpt>
      <trkpt lat="50.06496" lon="1.42809">
        <ele>36.975</ele>
        <time>2019-11-17T08:23:00Z</time>
      </trkpt>
      <trkpt lat="50.06546" lon="1.4291">
        <ele>42.604</ele>
        <time>2019-11-17T08:23:33Z</time>
      </trkpt>
      <trkpt lat="50.066" lon="1.43019">
        <ele>45.143</ele>
        <time>2019-11-17T08:24:03Z</time>
      </trkpt>
      <trkpt lat="50.06656" lon="1.43129">
        <ele>44.373</ele>
        <time>2019-11-17T08:24:33Z</time>
      </trkpt>
      <trkpt lat="50.0672" lon="1.43269">
        <ele>44.757</ele>
        <time>2019-11-17T08:25:06Z</time>
      </trkpt>
      <trkpt lat="50.06768" lon="1.4341">
        <ele>47.175</ele>
        <time>2019-11-17T08:25:36Z</time>
      </trkpt>
      <trkpt lat="50.06813" lon="1.43585">
        <ele>46.615</ele>
        <time>2019-11-17T08:26:09Z</time>
      </trkpt>
      <trkpt lat="50.06841" lon="1.43708">
        <ele>50.216</ele>
        <time>2019-11-17T08:26:39Z</time>
      </trkpt>
      <trkpt lat="50.06853" lon="1.43845">
        <ele>52.883</ele>
        <time>2019-11-17T08:27:09Z</time>
      </trkpt>
      <trkpt lat="50.06846" lon="1.43976">
        <ele>58.187</ele>
        <time>2019-11-17T08:27:42Z</time>
      </trkpt>
      <trkpt lat="50.06844" lon="1.44088">
        <ele>60.372</ele>
        <time>2019-11-17T08:28:12Z</time>
      </trkpt>
      <trkpt lat="50.06829" lon="1.44204">
        <ele>64.594</ele>
        <time>2019-11-17T08:28:45Z</time>
      </trkpt>
      <trkpt lat="50.06814" lon="1.44314">
        <ele>67.965</ele>
        <time>2019-11-17T08:29:15Z</time>
      </trkpt>
      <trkpt lat="50.068" lon="1.44442">
        <ele>66.937</ele>
        <time>2019-11-17T08:29:45Z</time>
      </trkpt>
      <trkpt lat="50.06806" lon="1.44606">
        <ele>67.855</ele>
        <time>2019-11-17T08:30:18Z</time>
      </trkpt>
      <trkpt lat="50.0683" lon="1.44706">
        <ele>76.448</ele>
        <time>2019-11-17T08:30:48Z</time>
      </trkpt>
      <trkpt lat="50.06866" lon="1.44808">
        <ele>80.806</ele>
        <time>2019-11-17T08:31:21Z</time>
      </trkpt>
      <trkpt lat="50.06903" lon="1.44899">
        <ele>79.378</ele>
        <time>2019-11-17T08:31:51Z</time>
      </trkpt>
      <trkpt lat="50.06963" lon="1.44968">
        <ele>77.176</ele>
        <time>2019-11-17T08:32:21Z</time>
      </trkpt>
      <trkpt lat="50.07032" lon="1.45064">
        <ele>83.828</ele>
        <time>2019-11-17T08:32:54Z</time>
      </trkpt>
      <trkpt lat="50.07086" lon="1.45165">
        <ele>91.923</ele>
        <time>2019-11-17T08:33:24Z</time>
      </trkpt>
      <trkpt lat="50.07125" lon="1.45258">
        <ele>102.44</ele>
        <time>2019-11-17T08:33:57Z</time>
      </trkpt>
      <trkpt lat="50.07163" lon="1.45345">
        <ele>94.389</ele>
        <time>2019-11-17T08:34:27Z</time>
      </trkpt>
      <trkpt lat="50.07203" lon="1.45425">
        <ele>98.935</ele>
        <time>2019-11-17T08:34:57Z</time>
      </trkpt>
      <trkpt lat="50.07249" lon="1.45518">
        <ele>100.459</ele>
        <time>2019-11-17T08:35:30Z</time>
      </trkpt>
      <trkpt lat="50.07308" lon="1.45595">
        <ele>103.187</ele>
        <time>2019-11-17T08:36:00Z</time>
      </trkpt>
      <trkpt lat="50.07364" lon="1.45675">
        <ele>103.572</ele>
        <time>2019-11-17T08:36:30Z</time>
      </trkpt>
      <trkpt lat="50.0743" lon="1.45771">
        <ele>110.238</ele>
        <time>2019-11-17T08:37:03Z</time>
      </trkpt>
      <trkpt lat="50.0749" lon="1.4584">
        <ele>111.732</ele>
        <time>2019-11-17T08:37:33Z</time>
      </trkpt>
      <trkpt lat="50.07569" lon="1.45931">
        <ele>108.653</ele>
        <time>2019-11-17T08:38:06Z</time>
      </trkpt>
      <trkpt lat="50.07653" lon="1.46017">
        <ele>112.754</ele>
        <time>2019-11-17T08:38:36Z</time>
      </trkpt>
      <trkpt lat="50.07754" lon="1.46114">
        <ele>111.271</ele>
        <time>2019-11-17T08:39:06Z</time>
      </trkpt>
      <trkpt lat="50.07873" lon="1.46254">
        <ele>108.385</ele>
        <time>2019-11-17T08:39:39Z</time>
      </trkpt>
      <trkpt lat="50.07995" lon="1.46407">
        <ele>103.774</ele>
        <time>2019-11-17T08:40:09Z</time>
      </trkpt>
      <trkpt lat="50.08147" lon="1.4658">
        <ele>102.31</ele>
        <time>2019-11-17T08:40:42Z</time>
      </trkpt>
      <trkpt lat="50.08259" lon="1.46778">
        <ele>97.553</ele>
        <time>2019-11-17T08:41:12Z</time>
      </trkpt>
      <trkpt lat="50.08375" lon="1.46979">
        <ele>98.164</ele>
        <time>2019-11-17T08:41:42Z</time>
      </trkpt>
      <trkpt lat="50.08518" lon="1.47151">
        <ele>99.212</ele>
        <time>2019-11-17T08:42:15Z</time>
      </trkpt>
      <trkpt lat="50.0865" lon="1.47307">
        <ele>93.286</ele>
        <time>2019-11-17T08:42:45Z</time>
      </trkpt>
      <trkpt lat="50.08824" lon="1.47415">
        <ele>91.941</ele>
        <time>2019-11-17T08:43:18Z</time>
      </trkpt>
      <trkpt lat="50.08936" lon="1.47487">
        <ele>94.69</ele>
        <time>2019-11-17T08:43:51Z</time>
      </trkpt>
      <trkpt lat="50.09052" lon="1.47532">
        <ele>96.257</ele>
        <time>2019-11-17T08:44:21Z</time>
      </trkpt>
      <trkpt lat="50.09174" lon="1.4764">
        <ele>98.265</ele>
        <time>2019-11-17T08:44:54Z</time>
      </trkpt>
      <trkpt lat="50.09252" lon="1.4779">
        <ele>96.13</ele>
        <time>2019-11-17T08:45:24Z</time>
      </trkpt>
      <trkpt lat="50.09341" lon="1.48015">
        <ele>92.205</ele>
        <time>2019-11-17T08:45:57Z</time>
      </trkpt>
      <trkpt lat="50.09467" lon="1.48275">
        <ele>88.06</ele>
        <time>2019-11-17T08:46:27Z</time>
      </trkpt>
      <trkpt lat="50.09537" lon="1.48545">
        <ele>85.245</ele>
        <time>2019-11-17T08:46:57Z</time>
      </trkpt>
      <trkpt lat="50.09668" lon="1.48772">
        <ele>79.917</ele>
        <time>2019-11-17T08:47:30Z</time>
      </trkpt>
      <trkpt lat="50.09803" lon="1.48984">
        <ele>75.934</ele>
        <time>2019-11-17T08:48:00Z</time>
      </trkpt>
      <trkpt lat="50.09902" lon="1.49216">
        <ele>74.657</ele>
        <time>2019-11-17T08:48:30Z</time>
      </trkpt>
      <trkpt lat="50.10003" lon="1.49526">
        <ele>68.755</ele>
        <time>2019-11-17T08:49:03Z</time>
      </trkpt>
      <trkpt lat="50.10129" lon="1.49842">
        <ele>59.756</ele>
        <time>2019-11-17T08:49:33Z</time>
      </trkpt>
      <trkpt lat="50.10199" lon="1.50188">
        <ele>54.768</ele>
        <time>2019-11-17T08:50:06Z</time>
      </trkpt>
      <trkpt lat="50.10228" lon="1.503">
        <ele>60.472</ele>
        <time>2019-11-17T08:50:36Z</time>
      </trkpt>
      <trkpt lat="50.10253" lon="1.50432">
        <ele>63.299</ele>
        <time>2019-11-17T08:51:06Z</time>
      </trkpt>
      <trkpt lat="50.10282" lon="1.50638">
        <ele>62.487</ele>
        <time>2019-11-17T08:51:39Z</time>
      </trkpt>
      <trkpt lat="50.10315" lon="1.50855">
        <ele>60.964</ele>
        <time>2019-11-17T08:52:09Z</time>
      </trkpt>
      <trkpt lat="50.10358" lon="1.51098">
        <ele>58.912</ele>
        <time>2019-11-17T08:52:42Z</time>
      </trkpt>
      <trkpt lat="50.10402" lon="1.51295">
        <ele>60.412</ele>
        <time>2019-11-17T08:53:12Z</time>
      </trkpt>
      <trkpt lat="50.10411" lon="1.51505">
        <ele>61.566</ele>
        <time>2019-11-17T08:53:42Z</time>
      </trkpt>
      <trkpt lat="50.10414" lon="1.51763">
        <ele>59.927</ele>
        <time>2019-11-17T08:54:15Z</time>
      </trkpt>
      <trkpt lat="50.10293" lon="1.51878">
        <ele>65.987</ele>
        <time>2019-11-17T08:54:45Z</time>
      </trkpt>
      <trkpt lat="50.10235" lon="1.51984">
        <ele>73.059</ele>
        <time>2019-11-17T08:55:18Z</time>
      </trkpt>
      <trkpt lat="50.10371" lon="1.5208">
        <ele>69.744</ele>
        <time>2019-11-17T08:55:48Z</time>
      </trkpt>
      <trkpt lat="50.10484" lon="1.52242">
        <ele>69.465</ele>
        <time>2019-11-17T08:56:18Z</time>
      </trkpt>
      <trkpt lat="50.10545" lon="1.52425">
        <ele>64.38</ele>
        <time>2019-11-17T08:56:51Z</time>
      </trkpt>
      <trkpt lat="50.10598" lon="1.52632">
        <ele>64.745</ele>
        <time>2019-11-17T08:57:21Z</time>
      </trkpt>
      <trkpt lat="50.10635" lon="1.52869">
        <ele>59.454</ele>
        <time>2019-11-17T08:57:54Z</time>
      </trkpt>
      <trkpt lat="50.10755" lon="1.5297">
        <ele>62.861</ele>
        <time>2019-11-17T08:58:24Z</time>
      </trkpt>
      <trkpt lat="50.10855" lon="1.53147">
        <ele>64.231</ele>
        <time>2019-11-17T08:58:54Z</time>
      </trkpt>
      <trkpt lat="50.10996" lon="1.53165">
        <ele>60.867</ele>
        <time>2019-11-17T08:59:27Z</time>
      </trkpt>
      <trkpt lat="50.11141" lon="1.53197">
        <ele>61.7</ele>
        <time>2019-11-17T08:59:57Z</time>
      </trkpt>
      <trkpt lat="50.11274" lon="1.53264">
        <ele>61.728</ele>
        <time>2019-11-17T09:00:27Z</time>
      </trkpt>
      <trkpt lat="50.11385" lon="1.53376">
        <ele>58.401</ele>
        <time>2019-11-17T09:01:00Z</time>
      </trkpt>
      <trkpt lat="50.11441" lon="1.53547">
        <ele>60.094</ele>
        <time>2019-11-17T09:01:30Z</time>
      </trkpt>
      <trkpt lat="50.11488" lon="1.53765">
        <ele>57.509</ele>
        <time>2019-11-17T09:02:03Z</time>
      </trkpt>
      <trkpt lat="50.11563" lon="1.53942">
        <ele>57.434</ele>
        <time>2019-11-17T09:02:33Z</time>
      </trkpt>
      <trkpt lat="50.11639" lon="1.54116">
        <ele>57.313</ele>
        <time>2019-11-17T09:03:03Z</time>
      </trkpt>
      <trkpt lat="50.11715" lon="1.54317">
        <ele>57.525</ele>
        <time>2019-11-17T09:03:36Z</time>
      </trkpt>
      <trkpt lat="50.1175" lon="1.54533">
        <ele>62.245</ele>
        <time>2019-11-17T09:04:06Z</time>
      </trkpt>
      <trkpt lat="50.1181" lon="1.54799">
        <ele>59.774</ele>
        <time>2019-11-17T09:04:39Z</time>
      </trkpt>
      <trkpt lat="50.11952" lon="1.54933">
        <ele>55.236</ele>
        <time>2019-11-17T09:05:09Z</time>
      </trkpt>
      <trkpt lat="50.1201" lon="1.55172">
        <ele>57.509</ele>
        <time>2019-11-17T09:05:39Z</time>
      </trkpt>
      <trkpt lat="50.12179" lon="1.55305">
        <ele>51.981</ele>
        <time>2019-11-17T09:06:12Z</time>
      </trkpt>
      <trkpt lat="50.12336" lon="1.55466">
        <ele>49.548</ele>
        <time>2019-11-17T09:06:42Z</time>
      </trkpt>
      <trkpt lat="50.12509" lon="1.55662">
        <ele>39.676</ele>
        <time>2019-11-17T09:07:15Z</time>
      </trkpt>
      <trkpt lat="50.12662" lon="1.55911">
        <ele>32.443</ele>
        <time>2019-11-17T09:07:45Z</time>
      </trkpt>
      <trkpt lat="50.12721" lon="1.5619">
        <ele>32.414</ele>
        <time>2019-11-17T09:08:15Z</time>
      </trkpt>
      <trkpt lat="50.12834" lon="1.56342">
        <ele>34.211</ele>
        <time>2019-11-17T09:08:48Z</time>
      </trkpt>
      <trkpt lat="50.12899" lon="1.56432">
        <ele>40.465</ele>
        <time>2019-11-17T09:09:18Z</time>
      </trkpt>
      <trkpt lat="50.12936" lon="1.56525">
        <ele>51.603</ele>
        <time>2019-11-17T09:09:51Z</time>
      </trkpt>
      <trkpt lat="50.12963" lon="1.56605">
        <ele>68.438</ele>
        <time>2019-11-17T09:10:21Z</time>
      </trkpt>
      <trkpt lat="50.13021" lon="1.56702">
        <ele>75.11</ele>
        <time>2019-11-17T09:10:51Z</time>
      </trkpt>
      <trkpt lat="50.13116" lon="1.56819">
        <ele>57.204</ele>
        <time>2019-11-17T09:11:24Z</time>
      </trkpt>
      <trkpt lat="50.13259" lon="1.56868">
        <ele>50.62</ele>
        <time>2019-11-17T09:11:54Z</time>
      </trkpt>
      <trkpt lat="50.13362" lon="1.57042">
        <ele>45.041</ele>
        <time>2019-11-17T09:12:24Z</time>
      </trkpt>
      <trkpt lat="50.13512" lon="1.5722">
        <ele>43.791</ele>
        <time>2019-11-17T09:12:57Z</time>
      </trkpt>
      <trkpt lat="50.13632" lon="1.57436">
        <ele>42.499</ele>
        <time>2019-11-17T09:13:27Z</time>
      </trkpt>
      <trkpt lat="50.13705" lon="1.57708">
        <ele>44.181</ele>
        <time>2019-11-17T09:14:00Z</time>
      </trkpt>
      <trkpt lat="50.1377" lon="1.57929">
        <ele>45.213</ele>
        <time>2019-11-17T09:14:30Z</time>
      </trkpt>
      <trkpt lat="50.13883" lon="1.58108">
        <ele>43.323</ele>
        <time>2019-11-17T09:15:00Z</time>
      </trkpt>
      <trkpt lat="50.14009" lon="1.58282">
        <ele>39.813</ele>
        <time>2019-11-17T09:15:33Z</time>
      </trkpt>
      <trkpt lat="50.14054" lon="1.58492">
        <ele>42.047</ele>
        <time>2019-11-17T09:16:03Z</time>
      </trkpt>
      <trkpt lat="50.14106" lon="1.58733">
        <ele>43.361</ele>
        <time>2019-11-17T09:16:36Z</time>
      </trkpt>
      <trkpt lat="50.14147" lon="1.58975">
        <ele>41.563</ele>
        <time>2019-11-17T09:17:06Z</time>
      </trkpt>
      <trkpt lat="50.14219" lon="1.59241">
        <ele>38.379</ele>
        <time>2019-11-17T09:17:36Z</time>
      </trkpt>
      <trkpt lat="50.144" lon="1.5943">
        <ele>31.995</ele>
        <time>2019-11-17T09:18:09Z</time>
      </trkpt>
      <trkpt lat="50.1455" lon="1.59612">
        <ele>28.213</ele>
        <time>2019-11-17T09:18:39Z</time>
      </trkpt>
      <trkpt lat="50.14703" lon="1.59799">
        <ele>26.127</ele>
        <time>2019-11-17T09:19:12Z</time>
      </trkpt>
      <trkpt lat="50.14798" lon="1.59971">
        <ele>26.955</ele>
        <time>2019-11-17T09:19:42Z</time>
      </trkpt>
      <trkpt lat="50.14894" lon="1.6014">
        <ele>28.326</ele>
        <time>2019-11-17T09:20:12Z</time>
      </trkpt>
      <trkpt lat="50.15004" lon="1.60353">
        <ele>25.996</ele>
        <time>2019-11-17T09:20:45Z</time>
      </trkpt>
      <trkpt lat="50.15115" lon="1.6059">
        <ele>24.061</ele>
        <time>2019-11-17T09:21:15Z</time>
      </trkpt>
      <trkpt lat="50.15261" lon="1.60874">
        <ele>14.353</ele>
        <time>2019-11-17T09:21:48Z</time>
      </trkpt>
      <trkpt lat="50.15456" lon="1.60982">
        <ele>8.018</ele>
        <time>2019-11-17T09:22:18Z</time>
      </trkpt>
      <trkpt lat="50.15553" lon="1.60795">
        <ele>8.294</ele>
        <time>2019-11-17T09:22:48Z</time>
      </trkpt>
      <trkpt lat="50.15552" lon="1.60791">
        <ele>10.345</ele>
        <time>2019-11-17T09:23:33Z</time>
      </trkpt>
      <trkpt lat="50.15644" lon="1.6092">
        <ele>8.537</ele>
        <time>2019-11-17T09:24:03Z</time>
      </trkpt>
      <trkpt lat="50.15707" lon="1.60996">
        <ele>18.401</ele>
        <time>2019-11-17T09:24:33Z</time>
      </trkpt>
      <trkpt lat="50.15788" lon="1.61105">
        <ele>21.703</ele>
        <time>2019-11-17T09:25:06Z</time>
      </trkpt>
      <trkpt lat="50.15854" lon="1.6119">
        <ele>11.394</ele>
        <time>2019-11-17T09:25:36Z</time>
      </trkpt>
      <trkpt lat="50.15898" lon="1.61352">
        <ele>9.013</ele>
        <time>2019-11-17T09:26:09Z</time>
      </trkpt>
      <trkpt lat="50.15989" lon="1.61496">
        <ele>11.445</ele>
        <time>2019-11-17T09:26:39Z</time>
      </trkpt>
      <trkpt lat="50.16064" lon="1.61661">
        <ele>12.195</ele>
        <time>2019-11-17T09:27:09Z</time>
      </trkpt>
      <trkpt lat="50.16131" lon="1.61875">
        <ele>12.422</ele>
        <time>2019-11-17T09:27:42Z</time>
      </trkpt>
      <trkpt lat="50.16257" lon="1.61979">
        <ele>9.528</ele>
        <time>2019-11-17T09:28:12Z</time>
      </trkpt>
      <trkpt lat="50.16316" lon="1.62199">
        <ele>10.864</ele>
        <time>2019-11-17T09:28:45Z</time>
      </trkpt>
      <trkpt lat="50.16408" lon="1.62391">
        <ele>11.057</ele>
        <time>2019-11-17T09:29:15Z</time>
      </trkpt>
      <trkpt lat="50.16508" lon="1.62546">
        <ele>13.718</ele>
        <time>2019-11-17T09:29:45Z</time>
      </trkpt>
      <trkpt lat="50.16634" lon="1.62657">
        <ele>11.733</ele>
        <time>2019-11-17T09:30:18Z</time>
      </trkpt>
      <trkpt lat="50.16761" lon="1.62785">
        <ele>6.304</ele>
        <time>2019-11-17T09:30:48Z</time>
      </trkpt>
      <trkpt lat="50.16767" lon="1.63053">
        <ele>7.195</ele>
        <time>2019-11-17T09:31:21Z</time>
      </trkpt>
      <trkpt lat="50.16786" lon="1.63268">
        <ele>10.456</ele>
        <time>2019-11-17T09:31:51Z</time>
      </trkpt>
      <trkpt lat="50.16856" lon="1.6345">
        <ele>11.954</ele>
        <time>2019-11-17T09:32:21Z</time>
      </trkpt>
      <trkpt lat="50.16934" lon="1.6365">
        <ele>10.654</ele>
        <time>2019-11-17T09:32:54Z</time>
      </trkpt>
      <trkpt lat="50.17024" lon="1.63836">
        <ele>10.072</ele>
        <time>2019-11-17T09:33:24Z</time>
      </trkpt>
      <trkpt lat="50.17058" lon="1.64058">
        <ele>10.009</ele>
        <time>2019-11-17T09:33:57Z</time>
      </trkpt>
      <trkpt lat="50.17044" lon="1.64268">
        <ele>8.516</ele>
        <time>2019-11-17T09:34:27Z</time>
      </trkpt>
      <trkpt lat="50.17067" lon="1.64474">
        <ele>7.08</ele>
        <time>2019-11-17T09:34:57Z</time>
      </trkpt>
      <trkpt lat="50.17156" lon="1.64635">
        <ele>14.007</ele>
        <time>2019-11-17T09:35:30Z</time>
      </trkpt>
      <trkpt lat="50.17227" lon="1.6477">
        <ele>19.678</ele>
        <time>2019-11-17T09:36:00Z</time>
      </trkpt>
      <trkpt lat="50.17178" lon="1.64931">
        <ele>10.615</ele>
        <time>2019-11-17T09:36:30Z</time>
      </trkpt>
      <trkpt lat="50.17165" lon="1.64824">
        <ele>10.238</ele>
        <time>2019-11-17T09:37:03Z</time>
      </trkpt>
      <trkpt lat="50.17135" lon="1.64921">
        <ele>8.035</ele>
        <time>2019-11-17T09:39:18.001Z</time>
      </trkpt>
      <trkpt lat="50.17237" lon="1.64968">
        <ele>9.495</ele>
        <time>2019-11-17T09:39:51.001Z</time>
      </trkpt>
      <trkpt lat="50.17211" lon="1.65168">
        <ele>6.433</ele>
        <time>2019-11-17T09:40:21.001Z</time>
      </trkpt>
      <trkpt lat="50.17196" lon="1.6539">
        <ele>3.949</ele>
        <time>2019-11-17T09:40:51.001Z</time>
      </trkpt>
      <trkpt lat="50.17229" lon="1.65599">
        <ele>5.552</ele>
        <time>2019-11-17T09:41:24.001Z</time>
      </trkpt>
      <trkpt lat="50.17296" lon="1.65744">
        <ele>11.737</ele>
        <time>2019-11-17T09:41:54.001Z</time>
      </trkpt>
      <trkpt lat="50.1738" lon="1.6596">
        <ele>15.022</ele>
        <time>2019-11-17T09:42:27.001Z</time>
      </trkpt>
      <trkpt lat="50.17378" lon="1.66209">
        <ele>7.195</ele>
        <time>2019-11-17T09:42:57.001Z</time>
      </trkpt>
      <trkpt lat="50.17368" lon="1.66432">
        <ele>5.26</ele>
        <time>2019-11-17T09:43:27.001Z</time>
      </trkpt>
      <trkpt lat="50.17358" lon="1.66678">
        <ele>2.163</ele>
        <time>2019-11-17T09:44:00.001Z</time>
      </trkpt>
      <trkpt lat="50.17349" lon="1.66893">
        <ele>5.204</ele>
        <time>2019-11-17T09:44:30.001Z</time>
      </trkpt>
      <trkpt lat="50.17354" lon="1.67111">
        <ele>6.742</ele>
        <time>2019-11-17T09:45:03.001Z</time>
      </trkpt>
      <trkpt lat="50.17373" lon="1.67312">
        <ele>4.104</ele>
        <time>2019-11-17T09:45:33.001Z</time>
      </trkpt>
      <trkpt lat="50.17394" lon="1.67505">
        <ele>4.286</ele>
        <time>2019-11-17T09:46:03.001Z</time>
      </trkpt>
      <trkpt lat="50.17416" lon="1.67725">
        <ele>5.586</ele>
        <time>2019-11-17T09:46:36.001Z</time>
      </trkpt>
      <trkpt lat="50.17437" lon="1.6793">
        <ele>3.78</ele>
        <time>2019-11-17T09:47:06.001Z</time>
      </trkpt>
      <trkpt lat="50.17461" lon="1.68152">
        <ele>7.041</ele>
        <time>2019-11-17T09:47:39.001Z</time>
      </trkpt>
      <trkpt lat="50.17481" lon="1.68354">
        <ele>7.766</ele>
        <time>2019-11-17T09:48:09.001Z</time>
      </trkpt>
      <trkpt lat="50.17505" lon="1.68533">
        <ele>5.536</ele>
        <time>2019-11-17T09:48:39.001Z</time>
      </trkpt>
      <trkpt lat="50.17581" lon="1.68709">
        <ele>8.402</ele>
        <time>2019-11-17T09:49:12.001Z</time>
      </trkpt>
      <trkpt lat="50.17682" lon="1.68838">
        <ele>7.683</ele>
        <time>2019-11-17T09:49:42.001Z</time>
      </trkpt>
      <trkpt lat="50.17784" lon="1.68966">
        <ele>8.035</ele>
        <time>2019-11-17T09:50:12.001Z</time>
      </trkpt>
      <trkpt lat="50.17896" lon="1.69105">
        <ele>7.999</ele>
        <time>2019-11-17T09:50:45.001Z</time>
      </trkpt>
      <trkpt lat="50.17995" lon="1.69229">
        <ele>9.954</ele>
        <time>2019-11-17T09:51:15.001Z</time>
      </trkpt>
      <trkpt lat="50.18092" lon="1.69383">
        <ele>10.402</ele>
        <time>2019-11-17T09:51:48.001Z</time>
      </trkpt>
      <trkpt lat="50.18133" lon="1.69534">
        <ele>12.598</ele>
        <time>2019-11-17T09:52:18.001Z</time>
      </trkpt>
      <trkpt lat="50.18228" lon="1.69585">
        <ele>12.532</ele>
        <time>2019-11-17T09:52:48.001Z</time>
      </trkpt>
      <trkpt lat="50.18363" lon="1.69692">
        <ele>6.881</ele>
        <time>2019-11-17T09:53:21.001Z</time>
      </trkpt>
      <trkpt lat="50.18466" lon="1.69806">
        <ele>9.194</ele>
        <time>2019-11-17T09:53:51.001Z</time>
      </trkpt>
      <trkpt lat="50.18576" lon="1.6994">
        <ele>10.206</ele>
        <time>2019-11-17T09:54:24.001Z</time>
      </trkpt>
      <trkpt lat="50.18679" lon="1.69923">
        <ele>11.421</ele>
        <time>2019-11-17T09:54:54.001Z</time>
      </trkpt>
      <trkpt lat="50.18802" lon="1.69938">
        <ele>13.87</ele>
        <time>2019-11-17T09:55:24.001Z</time>
      </trkpt>
      <trkpt lat="50.1893" lon="1.69951">
        <ele>22.589</ele>
        <time>2019-11-17T09:55:57.001Z</time>
      </trkpt>
      <trkpt lat="50.19048" lon="1.69964">
        <ele>23.518</ele>
        <time>2019-11-17T09:56:27.001Z</time>
      </trkpt>
      <trkpt lat="50.19187" lon="1.69979">
        <ele>15.289</ele>
        <time>2019-11-17T09:57:00.001Z</time>
      </trkpt>
      <trkpt lat="50.19302" lon="1.69929">
        <ele>10.588</ele>
        <time>2019-11-17T09:57:30.001Z</time>
      </trkpt>
      <trkpt lat="50.19428" lon="1.69849">
        <ele>8.986</ele>
        <time>2019-11-17T09:58:00.001Z</time>
      </trkpt>
      <trkpt lat="50.19544" lon="1.69709">
        <ele>8.968</ele>
        <time>2019-11-17T09:58:33.001Z</time>
      </trkpt>
      <trkpt lat="50.19642" lon="1.69547">
        <ele>7.749</ele>
        <time>2019-11-17T09:59:03.001Z</time>
      </trkpt>
      <trkpt lat="50.19753" lon="1.69347">
        <ele>8.108</ele>
        <time>2019-11-17T09:59:36.001Z</time>
      </trkpt>
      <trkpt lat="50.1981" lon="1.69143">
        <ele>8.001</ele>
        <time>2019-11-17T10:00:06.001Z</time>
      </trkpt>
      <trkpt lat="50.19897" lon="1.68957">
        <ele>7.422</ele>
        <time>2019-11-17T10:00:36.001Z</time>
      </trkpt>
      <trkpt lat="50.20015" lon="1.68803">
        <ele>9.777</ele>
        <time>2019-11-17T10:01:09.001Z</time>
      </trkpt>
      <trkpt lat="50.20114" lon="1.68683">
        <ele>8.886</ele>
        <time>2019-11-17T10:01:39.001Z</time>
      </trkpt>
      <trkpt lat="50.20244" lon="1.6857">
        <ele>7.727</ele>
        <time>2019-11-17T10:02:09.001Z</time>
      </trkpt>
      <trkpt lat="50.20388" lon="1.68445">
        <ele>7.98</ele>
        <time>2019-11-17T10:02:42.001Z</time>
      </trkpt>
      <trkpt lat="50.20519" lon="1.68317">
        <ele>8.108</ele>
        <time>2019-11-17T10:03:12.001Z</time>
      </trkpt>
      <trkpt lat="50.20658" lon="1.68156">
        <ele>5.447</ele>
        <time>2019-11-17T10:03:45.001Z</time>
      </trkpt>
      <trkpt lat="50.20783" lon="1.68008">
        <ele>4.924</ele>
        <time>2019-11-17T10:04:15.001Z</time>
      </trkpt>
      <trkpt lat="50.20894" lon="1.67854">
        <ele>7.505</ele>
        <time>2019-11-17T10:04:45.001Z</time>
      </trkpt>
      <trkpt lat="50.20995" lon="1.67649">
        <ele>7.513</ele>
        <time>2019-11-17T10:05:18.001Z</time>
      </trkpt>
      <trkpt lat="50.21068" lon="1.6744">
        <ele>6.564</ele>
        <time>2019-11-17T10:05:48.001Z</time>
      </trkpt>
      <trkpt lat="50.21141" lon="1.67211">
        <ele>3.75</ele>
        <time>2019-11-17T10:06:21.001Z</time>
      </trkpt>
      <trkpt lat="50.21202" lon="1.67027">
        <ele>6.768</ele>
        <time>2019-11-17T10:06:51.001Z</time>
      </trkpt>
      <trkpt lat="50.21273" lon="1.66813">
        <ele>8.45</ele>
        <time>2019-11-17T10:07:21.001Z</time>
      </trkpt>
      <trkpt lat="50.21351" lon="1.66571">
        <ele>5.511</ele>
        <time>2019-11-17T10:07:54.001Z</time>
      </trkpt>
      <trkpt lat="50.21426" lon="1.66343">
        <ele>4.752</ele>
        <time>2019-11-17T10:08:24.001Z</time>
      </trkpt>
      <trkpt lat="50.21479" lon="1.66137">
        <ele>6.495</ele>
        <time>2019-11-17T10:08:57.001Z</time>
      </trkpt>
      <trkpt lat="50.21533" lon="1.65892">
        <ele>3.373</ele>
        <time>2019-11-17T10:09:27.001Z</time>
      </trkpt>
      <trkpt lat="50.21592" lon="1.65673">
        <ele>4.137</ele>
        <time>2019-11-17T10:09:57.001Z</time>
      </trkpt>
      <trkpt lat="50.21658" lon="1.65421">
        <ele>4.781</ele>
        <time>2019-11-17T10:10:30.001Z</time>
      </trkpt>
      <trkpt lat="50.21714" lon="1.65203">
        <ele>6.666</ele>
        <time>2019-11-17T10:11:00.001Z</time>
      </trkpt>
      <trkpt lat="50.21773" lon="1.64984">
        <ele>9.08</ele>
        <time>2019-11-17T10:11:30.001Z</time>
      </trkpt>
      <trkpt lat="50.21838" lon="1.64746">
        <ele>3.86</ele>
        <time>2019-11-17T10:12:03.001Z</time>
      </trkpt>
      <trkpt lat="50.21898" lon="1.6452">
        <ele>6.254</ele>
        <time>2019-11-17T10:12:33.001Z</time>
      </trkpt>
      <trkpt lat="50.21971" lon="1.64294">
        <ele>8.975</ele>
        <time>2019-11-17T10:13:06.001Z</time>
      </trkpt>
      <trkpt lat="50.22056" lon="1.64118">
        <ele>10.053</ele>
        <time>2019-11-17T10:13:36.001Z</time>
      </trkpt>
      <trkpt lat="50.22149" lon="1.63935">
        <ele>11.66</ele>
        <time>2019-11-17T10:14:06.001Z</time>
      </trkpt>
      <trkpt lat="50.22243" lon="1.63741">
        <ele>7.204</ele>
        <time>2019-11-17T10:14:39.001Z</time>
      </trkpt>
      <trkpt lat="50.22325" lon="1.63576">
        <ele>9.155</ele>
        <time>2019-11-17T10:15:09.001Z</time>
      </trkpt>
      <trkpt lat="50.22375" lon="1.63453">
        <ele>12.807</ele>
        <time>2019-11-17T10:15:42.001Z</time>
      </trkpt>
      <trkpt lat="50.22387" lon="1.6353">
        <ele>9.385</ele>
        <time>2019-11-17T10:16:12.001Z</time>
      </trkpt>
      <trkpt lat="50.22427" lon="1.6333">
        <ele>7.524</ele>
        <time>2019-11-17T10:16:42.001Z</time>
      </trkpt>
      <trkpt lat="50.22481" lon="1.63102">
        <ele>9.154</ele>
        <time>2019-11-17T10:17:15.001Z</time>
      </trkpt>
      <trkpt lat="50.22534" lon="1.62893">
        <ele>8.009</ele>
        <time>2019-11-17T10:17:45.001Z</time>
      </trkpt>
      <trkpt lat="50.22602" lon="1.62664">
        <ele>9.022</ele>
        <time>2019-11-17T10:18:18.001Z</time>
      </trkpt>
      <trkpt lat="50.22663" lon="1.62467">
        <ele>7.642</ele>
        <time>2019-11-17T10:18:48.001Z</time>
      </trkpt>
      <trkpt lat="50.22684" lon="1.62371">
        <ele>9.108</ele>
        <time>2019-11-17T10:23:00.001Z</time>
      </trkpt>
      <trkpt lat="50.22722" lon="1.62159">
        <ele>9.421</ele>
        <time>2019-11-17T10:23:33.001Z</time>
      </trkpt>
      <trkpt lat="50.22755" lon="1.61987">
        <ele>10.118</ele>
        <time>2019-11-17T10:24:03.001Z</time>
      </trkpt>
      <trkpt lat="50.2278" lon="1.61838">
        <ele>13.058</ele>
        <time>2019-11-17T10:24:36.001Z</time>
      </trkpt>
      <trkpt lat="50.22807" lon="1.61693">
        <ele>15.154</ele>
        <time>2019-11-17T10:25:06.001Z</time>
      </trkpt>
      <trkpt lat="50.22848" lon="1.61479">
        <ele>16.259</ele>
        <time>2019-11-17T10:25:36.001Z</time>
      </trkpt>
      <trkpt lat="50.22939" lon="1.6145">
        <ele>12.471</ele>
        <time>2019-11-17T10:26:09.001Z</time>
      </trkpt>
      <trkpt lat="50.2304" lon="1.61481">
        <ele>12.433</ele>
        <time>2019-11-17T10:26:39.001Z</time>
      </trkpt>
      <trkpt lat="50.23086" lon="1.61498">
        <ele>12.653</ele>
        <time>2019-11-17T10:43:00.001Z</time>
      </trkpt>
      <trkpt lat="50.23226" lon="1.61534">
        <ele>9.892</ele>
        <time>2019-11-17T10:43:33.001Z</time>
      </trkpt>
      <trkpt lat="50.23353" lon="1.61566">
        <ele>9.791</ele>
        <time>2019-11-17T10:44:03.001Z</time>
      </trkpt>
      <trkpt lat="50.23511" lon="1.61605">
        <ele>11.728</ele>
        <time>2019-11-17T10:44:36.001Z</time>
      </trkpt>
      <trkpt lat="50.2366" lon="1.61644">
        <ele>12.863</ele>
        <time>2019-11-17T10:45:06.001Z</time>
      </trkpt>
      <trkpt lat="50.2381" lon="1.61682">
        <ele>12.231</ele>
        <time>2019-11-17T10:45:36.001Z</time>
      </trkpt>
      <trkpt lat="50.23974" lon="1.61724">
        <ele>12.07</ele>
        <time>2019-11-17T10:46:09.001Z</time>
      </trkpt>
      <trkpt lat="50.24125" lon="1.61761">
        <ele>9.091</ele>
        <time>2019-11-17T10:46:39.001Z</time>
      </trkpt>
      <trkpt lat="50.24286" lon="1.61803">
        <ele>12.87</ele>
        <time>2019-11-17T10:47:12.001Z</time>
      </trkpt>
      <trkpt lat="50.24404" lon="1.6184">
        <ele>12.322</ele>
        <time>2019-11-17T10:47:42.001Z</time>
      </trkpt>
      <trkpt lat="50.24492" lon="1.61915">
        <ele>9.09</ele>
        <time>2019-11-17T10:48:12.001Z</time>
      </trkpt>
      <trkpt lat="50.24653" lon="1.61943">
        <ele>10.951</ele>
        <time>2019-11-17T10:48:45.001Z</time>
      </trkpt>
      <trkpt lat="50.24795" lon="1.61934">
        <ele>15.016</ele>
        <time>2019-11-17T10:49:15.001Z</time>
      </trkpt>
      <trkpt lat="50.2496" lon="1.6194">
        <ele>16.481</ele>
        <time>2019-11-17T10:49:48.001Z</time>
      </trkpt>
      <trkpt lat="50.25114" lon="1.62008">
        <ele>11.044</ele>
        <time>2019-11-17T10:50:18.001Z</time>
      </trkpt>
      <trkpt lat="50.25259" lon="1.6209">
        <ele>10.643</ele>
        <time>2019-11-17T10:50:48.001Z</time>
      </trkpt>
      <trkpt lat="50.25411" lon="1.62192">
        <ele>9.316</ele>
        <time>2019-11-17T10:51:21.001Z</time>
      </trkpt>
      <trkpt lat="50.25561" lon="1.62206">
        <ele>10.814</ele>
        <time>2019-11-17T10:51:51.001Z</time>
      </trkpt>
      <trkpt lat="50.25732" lon="1.6222">
        <ele>13.318</ele>
        <time>2019-11-17T10:52:24.001Z</time>
      </trkpt>
      <trkpt lat="50.25895" lon="1.62208">
        <ele>9.513</ele>
        <time>2019-11-17T10:52:54.001Z</time>
      </trkpt>
      <trkpt lat="50.26055" lon="1.62178">
        <ele>12.019</ele>
        <time>2019-11-17T10:53:24.001Z</time>
      </trkpt>
      <trkpt lat="50.26218" lon="1.62196">
        <ele>11.209</ele>
        <time>2019-11-17T10:53:57.001Z</time>
      </trkpt>
      <trkpt lat="50.2637" lon="1.62224">
        <ele>14.257</ele>
        <time>2019-11-17T10:54:27.001Z</time>
      </trkpt>
      <trkpt lat="50.26522" lon="1.62246">
        <ele>12.055</ele>
        <time>2019-11-17T10:54:57.001Z</time>
      </trkpt>
      <trkpt lat="50.26675" lon="1.62203">
        <ele>15.421</ele>
        <time>2019-11-17T10:55:30.001Z</time>
      </trkpt>
      <trkpt lat="50.26781" lon="1.62038">
        <ele>14.233</ele>
        <time>2019-11-17T10:56:00.001Z</time>
      </trkpt>
      <trkpt lat="50.26926" lon="1.61894">
        <ele>11.928</ele>
        <time>2019-11-17T10:56:33.001Z</time>
      </trkpt>
      <trkpt lat="50.27042" lon="1.61759">
        <ele>9.126</ele>
        <time>2019-11-17T10:57:03.001Z</time>
      </trkpt>
      <trkpt lat="50.27168" lon="1.61632">
        <ele>9.371</ele>
        <time>2019-11-17T10:57:33.001Z</time>
      </trkpt>
      <trkpt lat="50.27298" lon="1.61753">
        <ele>9.966</ele>
        <time>2019-11-17T10:58:06.001Z</time>
      </trkpt>
      <trkpt lat="50.27429" lon="1.61763">
        <ele>10.273</ele>
        <time>2019-11-17T10:58:36.001Z</time>
      </trkpt>
      <trkpt lat="50.27564" lon="1.6162">
        <ele>11.128</ele>
        <time>2019-11-17T10:59:09.001Z</time>
      </trkpt>
      <trkpt lat="50.27657" lon="1.61468">
        <ele>7.097</ele>
        <time>2019-11-17T10:59:39.001Z</time>
      </trkpt>
      <trkpt lat="50.27767" lon="1.6132">
        <ele>3.447</ele>
        <time>2019-11-17T11:00:09.001Z</time>
      </trkpt>
      <trkpt lat="50.27893" lon="1.61204">
        <ele>3.735</ele>
        <time>2019-11-17T11:00:42.001Z</time>
      </trkpt>
      <trkpt lat="50.28006" lon="1.61074">
        <ele>4.551</ele>
        <time>2019-11-17T11:01:12.001Z</time>
      </trkpt>
      <trkpt lat="50.28163" lon="1.61064">
        <ele>11.145</ele>
        <time>2019-11-17T11:01:45.001Z</time>
      </trkpt>
      <trkpt lat="50.28268" lon="1.61243">
        <ele>7.735</ele>
        <time>2019-11-17T11:02:15.001Z</time>
      </trkpt>
      <trkpt lat="50.28386" lon="1.61391">
        <ele>10.178</ele>
        <time>2019-11-17T11:02:45.001Z</time>
      </trkpt>
      <trkpt lat="50.28499" lon="1.61558">
        <ele>5.213</ele>
        <time>2019-11-17T11:03:18.001Z</time>
      </trkpt>
      <trkpt lat="50.28639" lon="1.61621">
        <ele>6.818</ele>
        <time>2019-11-17T11:03:48.001Z</time>
      </trkpt>
      <trkpt lat="50.28801" lon="1.61619">
        <ele>7.221</ele>
        <time>2019-11-17T11:04:21.001Z</time>
      </trkpt>
      <trkpt lat="50.28939" lon="1.61541">
        <ele>7.993</ele>
        <time>2019-11-17T11:04:51.001Z</time>
      </trkpt>
      <trkpt lat="50.29052" lon="1.61525">
        <ele>9.362</ele>
        <time>2019-11-17T11:05:21.001Z</time>
      </trkpt>
      <trkpt lat="50.29159" lon="1.61725">
        <ele>5.883</ele>
        <time>2019-11-17T11:05:54.001Z</time>
      </trkpt>
      <trkpt lat="50.29271" lon="1.6187">
        <ele>8.014</ele>
        <time>2019-11-17T11:06:24.001Z</time>
      </trkpt>
      <trkpt lat="50.29392" lon="1.61999">
        <ele>9.518</ele>
        <time>2019-11-17T11:06:54.001Z</time>
      </trkpt>
      <trkpt lat="50.29542" lon="1.62036">
        <ele>16.334</ele>
        <time>2019-11-17T11:07:27.001Z</time>
      </trkpt>
      <trkpt lat="50.29683" lon="1.6211">
        <ele>14.654</ele>
        <time>2019-11-17T11:07:57.001Z</time>
      </trkpt>
      <trkpt lat="50.29801" lon="1.62278">
        <ele>8.785</ele>
        <time>2019-11-17T11:08:30.001Z</time>
      </trkpt>
      <trkpt lat="50.29865" lon="1.62479">
        <ele>4.121</ele>
        <time>2019-11-17T11:09:00.001Z</time>
      </trkpt>
      <trkpt lat="50.29946" lon="1.62641">
        <ele>5.374</ele>
        <time>2019-11-17T11:09:30.001Z</time>
      </trkpt>
      <trkpt lat="50.30049" lon="1.6282">
        <ele>5.002</ele>
        <time>2019-11-17T11:10:03.001Z</time>
      </trkpt>
      <trkpt lat="50.30191" lon="1.62734">
        <ele>3.764</ele>
        <time>2019-11-17T11:10:33.001Z</time>
      </trkpt>
      <trkpt lat="50.30298" lon="1.62842">
        <ele>5.473</ele>
        <time>2019-11-17T11:11:06.001Z</time>
      </trkpt>
      <trkpt lat="50.30383" lon="1.63023">
        <ele>5.422</ele>
        <time>2019-11-17T11:11:36.001Z</time>
      </trkpt>
      <trkpt lat="50.30463" lon="1.63058">
        <ele>6.939</ele>
        <time>2019-11-17T11:12:06.001Z</time>
      </trkpt>
      <trkpt lat="50.30584" lon="1.62919">
        <ele>8.874</ele>
        <time>2019-11-17T11:12:39.001Z</time>
      </trkpt>
      <trkpt lat="50.30702" lon="1.62866">
        <ele>9.425</ele>
        <time>2019-11-17T11:13:09.001Z</time>
      </trkpt>
      <trkpt lat="50.30762" lon="1.63055">
        <ele>9.704</ele>
        <time>2019-11-17T11:13:42.001Z</time>
      </trkpt>
      <trkpt lat="50.30851" lon="1.63202">
        <ele>3.088</ele>
        <time>2019-11-17T11:14:12.001Z</time>
      </trkpt>
      <trkpt lat="50.30967" lon="1.63304">
        <ele>7.85</ele>
        <time>2019-11-17T11:14:42.001Z</time>
      </trkpt>
      <trkpt lat="50.31063" lon="1.63421">
        <ele>10.573</ele>
        <time>2019-11-17T11:15:15.001Z</time>
      </trkpt>
      <trkpt lat="50.31195" lon="1.63373">
        <ele>10.026</ele>
        <time>2019-11-17T11:15:45.001Z</time>
      </trkpt>
      <trkpt lat="50.31339" lon="1.63403">
        <ele>9.578</ele>
        <time>2019-11-17T11:16:18.001Z</time>
      </trkpt>
      <trkpt lat="50.31448" lon="1.63525">
        <ele>12.241</ele>
        <time>2019-11-17T11:16:48.001Z</time>
      </trkpt>
      <trkpt lat="50.31561" lon="1.63574">
        <ele>13.661</ele>
        <time>2019-11-17T11:17:18.001Z</time>
      </trkpt>
      <trkpt lat="50.31631" lon="1.63689">
        <ele>10.392</ele>
        <time>2019-11-17T11:17:51.001Z</time>
      </trkpt>
      <trkpt lat="50.31759" lon="1.63771">
        <ele>7.159</ele>
        <time>2019-11-17T11:18:21.001Z</time>
      </trkpt>
      <trkpt lat="50.31884" lon="1.6391">
        <ele>5.934</ele>
        <time>2019-11-17T11:18:51.001Z</time>
      </trkpt>
      <trkpt lat="50.32004" lon="1.63983">
        <ele>7.118</ele>
        <time>2019-11-17T11:19:24.001Z</time>
      </trkpt>
      <trkpt lat="50.32146" lon="1.64001">
        <ele>8.107</ele>
        <time>2019-11-17T11:19:54.001Z</time>
      </trkpt>
      <trkpt lat="50.32281" lon="1.64019">
        <ele>9.644</ele>
        <time>2019-11-17T11:20:27.001Z</time>
      </trkpt>
      <trkpt lat="50.32406" lon="1.64046">
        <ele>11.818</ele>
        <time>2019-11-17T11:20:57.001Z</time>
      </trkpt>
      <trkpt lat="50.32541" lon="1.64075">
        <ele>10.624</ele>
        <time>2019-11-17T11:21:27.001Z</time>
      </trkpt>
      <trkpt lat="50.32697" lon="1.6412">
        <ele>12.566</ele>
        <time>2019-11-17T11:22:00.001Z</time>
      </trkpt>
      <trkpt lat="50.32843" lon="1.64166">
        <ele>11.173</ele>
        <time>2019-11-17T11:22:30.001Z</time>
      </trkpt>
      <trkpt lat="50.32998" lon="1.64308">
        <ele>8.743</ele>
        <time>2019-11-17T11:23:03.001Z</time>
      </trkpt>
      <trkpt lat="50.33136" lon="1.64394">
        <ele>9.35</ele>
        <time>2019-11-17T11:23:33.001Z</time>
      </trkpt>
      <trkpt lat="50.33283" lon="1.64417">
        <ele>12.165</ele>
        <time>2019-11-17T11:24:03.001Z</time>
      </trkpt>
      <trkpt lat="50.33472" lon="1.64379">
        <ele>6.802</ele>
        <time>2019-11-17T11:24:36.001Z</time>
      </trkpt>
      <trkpt lat="50.33638" lon="1.64421">
        <ele>7.694</ele>
        <time>2019-11-17T11:25:06.001Z</time>
      </trkpt>
      <trkpt lat="50.33803" lon="1.64476">
        <ele>14.398</ele>
        <time>2019-11-17T11:25:39.001Z</time>
      </trkpt>
      <trkpt lat="50.33948" lon="1.64425">
        <ele>10.395</ele>
        <time>2019-11-17T11:26:09.001Z</time>
      </trkpt>
      <trkpt lat="50.34081" lon="1.64397">
        <ele>15.494</ele>
        <time>2019-11-17T11:26:39.001Z</time>
      </trkpt>
      <trkpt lat="50.34236" lon="1.6442">
        <ele>16.899</ele>
        <time>2019-11-17T11:27:12.001Z</time>
      </trkpt>
      <trkpt lat="50.34365" lon="1.64482">
        <ele>12.535</ele>
        <time>2019-11-17T11:27:42.001Z</time>
      </trkpt>
      <trkpt lat="50.34494" lon="1.64585">
        <ele>9.512</ele>
        <time>2019-11-17T11:28:15.001Z</time>
      </trkpt>
      <trkpt lat="50.34622" lon="1.64668">
        <ele>8.763</ele>
        <time>2019-11-17T11:28:45.001Z</time>
      </trkpt>
      <trkpt lat="50.3476" lon="1.64717">
        <ele>9.18</ele>
        <time>2019-11-17T11:29:15.001Z</time>
      </trkpt>
      <trkpt lat="50.3491" lon="1.64762">
        <ele>11.395</ele>
        <time>2019-11-17T11:29:48.001Z</time>
      </trkpt>
      <trkpt lat="50.35009" lon="1.64783">
        <ele>16.416</ele>
        <time>2019-11-17T11:30:18.001Z</time>
      </trkpt>
      <trkpt lat="50.35157" lon="1.64836">
        <ele>22.788</ele>
        <time>2019-11-17T11:30:48.001Z</time>
      </trkpt>
      <trkpt lat="50.35296" lon="1.64883">
        <ele>11.63</ele>
        <time>2019-11-17T11:31:21.001Z</time>
      </trkpt>
      <trkpt lat="50.35427" lon="1.64935">
        <ele>12.588</ele>
        <time>2019-11-17T11:31:51.001Z</time>
      </trkpt>
      <trkpt lat="50.35578" lon="1.64998">
        <ele>12.045</ele>
        <time>2019-11-17T11:32:24.001Z</time>
      </trkpt>
      <trkpt lat="50.35709" lon="1.65052">
        <ele>15.184</ele>
        <time>2019-11-17T11:32:54.001Z</time>
      </trkpt>
      <trkpt lat="50.35845" lon="1.65112">
        <ele>20.423</ele>
        <time>2019-11-17T11:33:24.001Z</time>
      </trkpt>
      <trkpt lat="50.36004" lon="1.65175">
        <ele>14.582</ele>
        <time>2019-11-17T11:33:57.001Z</time>
      </trkpt>
      <trkpt lat="50.36129" lon="1.65223">
        <ele>14.424</ele>
        <time>2019-11-17T11:34:27.001Z</time>
      </trkpt>
      <trkpt lat="50.36271" lon="1.65268">
        <ele>12.767</ele>
        <time>2019-11-17T11:35:00.001Z</time>
      </trkpt>
      <trkpt lat="50.36388" lon="1.65351">
        <ele>13.136</ele>
        <time>2019-11-17T11:35:30.001Z</time>
      </trkpt>
      <trkpt lat="50.36513" lon="1.65495">
        <ele>12.694</ele>
        <time>2019-11-17T11:36:00.001Z</time>
      </trkpt>
      <trkpt lat="50.36651" lon="1.65595">
        <ele>9.468</ele>
        <time>2019-11-17T11:36:33.001Z</time>
      </trkpt>
      <trkpt lat="50.36781" lon="1.65682">
        <ele>6.587</ele>
        <time>2019-11-17T11:37:03.001Z</time>
      </trkpt>
      <trkpt lat="50.36922" lon="1.65825">
        <ele>13.097</ele>
        <time>2019-11-17T11:37:36.001Z</time>
      </trkpt>
      <trkpt lat="50.37057" lon="1.65944">
        <ele>12.153</ele>
        <time>2019-11-17T11:38:06.001Z</time>
      </trkpt>
      <trkpt lat="50.37162" lon="1.6606">
        <ele>8.793</ele>
        <time>2019-11-17T11:38:36.001Z</time>
      </trkpt>
      <trkpt lat="50.37314" lon="1.66043">
        <ele>10.238</ele>
        <time>2019-11-17T11:39:09.001Z</time>
      </trkpt>
      <trkpt lat="50.3744" lon="1.6598">
        <ele>15.907</ele>
        <time>2019-11-17T11:39:39.001Z</time>
      </trkpt>
      <trkpt lat="50.37581" lon="1.6586">
        <ele>13.369</ele>
        <time>2019-11-17T11:40:12.001Z</time>
      </trkpt>
      <trkpt lat="50.377" lon="1.65674">
        <ele>14.912</ele>
        <time>2019-11-17T11:40:42.001Z</time>
      </trkpt>
      <trkpt lat="50.37793" lon="1.6545">
        <ele>9.716</ele>
        <time>2019-11-17T11:41:12.001Z</time>
      </trkpt>
      <trkpt lat="50.37904" lon="1.65305">
        <ele>12.674</ele>
        <time>2019-11-17T11:41:45.001Z</time>
      </trkpt>
      <trkpt lat="50.38054" lon="1.65274">
        <ele>21.037</ele>
        <time>2019-11-17T11:42:15.001Z</time>
      </trkpt>
      <trkpt lat="50.38214" lon="1.65201">
        <ele>13.507</ele>
        <time>2019-11-17T11:42:45.001Z</time>
      </trkpt>
      <trkpt lat="50.38392" lon="1.65177">
        <ele>11.649</ele>
        <time>2019-11-17T11:43:18.001Z</time>
      </trkpt>
      <trkpt lat="50.38529" lon="1.65153">
        <ele>7.773</ele>
        <time>2019-11-17T11:43:48.001Z</time>
      </trkpt>
      <trkpt lat="50.38687" lon="1.65168">
        <ele>8.414</ele>
        <time>2019-11-17T11:44:21.001Z</time>
      </trkpt>
      <trkpt lat="50.38823" lon="1.65167">
        <ele>9.325</ele>
        <time>2019-11-17T11:44:51.001Z</time>
      </trkpt>
      <trkpt lat="50.38939" lon="1.65138">
        <ele>10.819</ele>
        <time>2019-11-17T11:45:21.001Z</time>
      </trkpt>
      <trkpt lat="50.39093" lon="1.65119">
        <ele>10.855</ele>
        <time>2019-11-17T11:45:54.001Z</time>
      </trkpt>
      <trkpt lat="50.39252" lon="1.6511">
        <ele>9.68</ele>
        <time>2019-11-17T11:46:24.001Z</time>
      </trkpt>
      <trkpt lat="50.39411" lon="1.65067">
        <ele>12.703</ele>
        <time>2019-11-17T11:46:57.001Z</time>
      </trkpt>
      <trkpt lat="50.39548" lon="1.65027">
        <ele>15.626</ele>
        <time>2019-11-17T11:47:27.001Z</time>
      </trkpt>
      <trkpt lat="50.39685" lon="1.64962">
        <ele>21.199</ele>
        <time>2019-11-17T11:47:57.001Z</time>
      </trkpt>
      <trkpt lat="50.3983" lon="1.64918">
        <ele>21.91</ele>
        <time>2019-11-17T11:48:30.001Z</time>
      </trkpt>
      <trkpt lat="50.39962" lon="1.64922">
        <ele>21.158</ele>
        <time>2019-11-17T11:49:00.001Z</time>
      </trkpt>
      <trkpt lat="50.40097" lon="1.64961">
        <ele>19.711</ele>
        <time>2019-11-17T11:49:33.001Z</time>
      </trkpt>
      <trkpt lat="50.40226" lon="1.65002">
        <ele>16.814</ele>
        <time>2019-11-17T11:50:03.001Z</time>
      </trkpt>
      <trkpt lat="50.40362" lon="1.65005">
        <ele>25.59</ele>
        <time>2019-11-17T11:50:33.001Z</time>
      </trkpt>
      <trkpt lat="50.40509" lon="1.64868">
        <ele>23.796</ele>
        <time>2019-11-17T11:51:06.001Z</time>
      </trkpt>
      <trkpt lat="50.4064" lon="1.64763">
        <ele>23.617</ele>
        <time>2019-11-17T11:51:36.001Z</time>
      </trkpt>
      <trkpt lat="50.40774" lon="1.64764">
        <ele>17.623</ele>
        <time>2019-11-17T11:52:09.001Z</time>
      </trkpt>
      <trkpt lat="50.40935" lon="1.64774">
        <ele>18.728</ele>
        <time>2019-11-17T11:52:39.001Z</time>
      </trkpt>
      <trkpt lat="50.41084" lon="1.64771">
        <ele>18.976</ele>
        <time>2019-11-17T11:53:09.001Z</time>
      </trkpt>
      <trkpt lat="50.41254" lon="1.64772">
        <ele>21.118</ele>
        <time>2019-11-17T11:53:42.001Z</time>
      </trkpt>
      <trkpt lat="50.4141" lon="1.64769">
        <ele>19.272</ele>
        <time>2019-11-17T11:54:12.001Z</time>
      </trkpt>
      <trkpt lat="50.41546" lon="1.64768">
        <ele>22.693</ele>
        <time>2019-11-17T11:54:42.001Z</time>
      </trkpt>
      <trkpt lat="50.41686" lon="1.64763">
        <ele>18.946</ele>
        <time>2019-11-17T11:55:15.001Z</time>
      </trkpt>
      <trkpt lat="50.41756" lon="1.64704">
        <ele>15.714</ele>
        <time>2019-11-17T11:55:45.001Z</time>
      </trkpt>
      <trkpt lat="50.41726" lon="1.64399">
        <ele>10.088</ele>
        <time>2019-11-17T11:56:18.001Z</time>
      </trkpt>
      <trkpt lat="50.41723" lon="1.6412">
        <ele>3.196</ele>
        <time>2019-11-17T11:56:48.001Z</time>
      </trkpt>
      <trkpt lat="50.4177" lon="1.63915">
        <ele>8.909</ele>
        <time>2019-11-17T11:57:18.001Z</time>
      </trkpt>
      <trkpt lat="50.41827" lon="1.63695">
        <ele>14.837</ele>
        <time>2019-11-17T11:57:51.001Z</time>
      </trkpt>
      <trkpt lat="50.4191" lon="1.63537">
        <ele>11.229</ele>
        <time>2019-11-17T11:58:21.001Z</time>
      </trkpt>
      <trkpt lat="50.42077" lon="1.63452">
        <ele>12.009</ele>
        <time>2019-11-17T11:58:54.001Z</time>
      </trkpt>
      <trkpt lat="50.42228" lon="1.63518">
        <ele>7.063</ele>
        <time>2019-11-17T11:59:24.001Z</time>
      </trkpt>
      <trkpt lat="50.42371" lon="1.635">
        <ele>8.513</ele>
        <time>2019-11-17T11:59:54.001Z</time>
      </trkpt>
      <trkpt lat="50.4253" lon="1.63384">
        <ele>11.947</ele>
        <time>2019-11-17T12:00:27.001Z</time>
      </trkpt>
      <trkpt lat="50.42624" lon="1.63202">
        <ele>17.091</ele>
        <time>2019-11-17T12:00:57.001Z</time>
      </trkpt>
      <trkpt lat="50.42699" lon="1.62948">
        <ele>12.194</ele>
        <time>2019-11-17T12:01:30.001Z</time>
      </trkpt>
      <trkpt lat="50.42795" lon="1.62772">
        <ele>11.49</ele>
        <time>2019-11-17T12:02:00.001Z</time>
      </trkpt>
      <trkpt lat="50.42879" lon="1.62579">
        <ele>8.03</ele>
        <time>2019-11-17T12:02:30.001Z</time>
      </trkpt>
      <trkpt lat="50.42967" lon="1.62366">
        <ele>10.945</ele>
        <time>2019-11-17T12:03:03.001Z</time>
      </trkpt>
      <trkpt lat="50.43049" lon="1.62173">
        <ele>9.352</ele>
        <time>2019-11-17T12:03:33.001Z</time>
      </trkpt>
      <trkpt lat="50.43142" lon="1.61987">
        <ele>12.536</ele>
        <time>2019-11-17T12:04:06.001Z</time>
      </trkpt>
      <trkpt lat="50.43264" lon="1.61875">
        <ele>25.332</ele>
        <time>2019-11-17T12:04:36.001Z</time>
      </trkpt>
      <trkpt lat="50.43394" lon="1.61771">
        <ele>29.773</ele>
        <time>2019-11-17T12:05:06.001Z</time>
      </trkpt>
      <trkpt lat="50.43546" lon="1.61641">
        <ele>27.196</ele>
        <time>2019-11-17T12:05:39.001Z</time>
      </trkpt>
      <trkpt lat="50.43703" lon="1.61573">
        <ele>23.89</ele>
        <time>2019-11-17T12:06:09.001Z</time>
      </trkpt>
      <trkpt lat="50.43843" lon="1.61537">
        <ele>19.81</ele>
        <time>2019-11-17T12:06:39.001Z</time>
      </trkpt>
      <trkpt lat="50.43983" lon="1.61518">
        <ele>17.351</ele>
        <time>2019-11-17T12:07:15.001Z</time>
      </trkpt>
      <trkpt lat="50.44134" lon="1.61521">
        <ele>14.352</ele>
        <time>2019-11-17T12:07:45.001Z</time>
      </trkpt>
      <trkpt lat="50.44271" lon="1.61611">
        <ele>6.816</ele>
        <time>2019-11-17T12:08:18.001Z</time>
      </trkpt>
      <trkpt lat="50.44359" lon="1.61717">
        <ele>5.677</ele>
        <time>2019-11-17T12:08:48.001Z</time>
      </trkpt>
      <trkpt lat="50.44501" lon="1.61767">
        <ele>10.944</ele>
        <time>2019-11-17T12:09:18.001Z</time>
      </trkpt>
      <trkpt lat="50.44655" lon="1.6173">
        <ele>19.951</ele>
        <time>2019-11-17T12:09:51.001Z</time>
      </trkpt>
      <trkpt lat="50.44798" lon="1.61631">
        <ele>15.406</ele>
        <time>2019-11-17T12:10:21.001Z</time>
      </trkpt>
      <trkpt lat="50.4497" lon="1.6155">
        <ele>16.648</ele>
        <time>2019-11-17T12:10:54.001Z</time>
      </trkpt>
      <trkpt lat="50.45116" lon="1.61526">
        <ele>20.409</ele>
        <time>2019-11-17T12:11:24.001Z</time>
      </trkpt>
      <trkpt lat="50.45273" lon="1.61438">
        <ele>15.372</ele>
        <time>2019-11-17T12:11:54.001Z</time>
      </trkpt>
      <trkpt lat="50.45432" lon="1.61394">
        <ele>21.634</ele>
        <time>2019-11-17T12:12:27.001Z</time>
      </trkpt>
      <trkpt lat="50.45566" lon="1.61359">
        <ele>14.213</ele>
        <time>2019-11-17T12:12:57.001Z</time>
      </trkpt>
      <trkpt lat="50.45572" lon="1.61108">
        <ele>4.381</ele>
        <time>2019-11-17T12:13:30.001Z</time>
      </trkpt>
      <trkpt lat="50.45586" lon="1.60917">
        <ele>12.746</ele>
        <time>2019-11-17T12:14:00.001Z</time>
      </trkpt>
      <trkpt lat="50.45576" lon="1.60723">
        <ele>13.263</ele>
        <time>2019-11-17T12:14:30.001Z</time>
      </trkpt>
      <trkpt lat="50.4565" lon="1.60556">
        <ele>21.092</ele>
        <time>2019-11-17T12:15:03.001Z</time>
      </trkpt>
      <trkpt lat="50.45742" lon="1.60391">
        <ele>16.036</ele>
        <time>2019-11-17T12:15:33.001Z</time>
      </trkpt>
      <trkpt lat="50.45829" lon="1.60184">
        <ele>13.139</ele>
        <time>2019-11-17T12:16:06.001Z</time>
      </trkpt>
      <trkpt lat="50.4587" lon="1.59945">
        <ele>8.989</ele>
        <time>2019-11-17T12:16:36.001Z</time>
      </trkpt>
      <trkpt lat="50.45909" lon="1.59687">
        <ele>10.667</ele>
        <time>2019-11-17T12:17:06.001Z</time>
      </trkpt>
      <trkpt lat="50.45951" lon="1.5941">
        <ele>13.484</ele>
        <time>2019-11-17T12:17:39.001Z</time>
      </trkpt>
      <trkpt lat="50.45992" lon="1.59164">
        <ele>9.398</ele>
        <time>2019-11-17T12:18:09.001Z</time>
      </trkpt>
      <trkpt lat="50.4603" lon="1.58923">
        <ele>13.913</ele>
        <time>2019-11-17T12:18:39.001Z</time>
      </trkpt>
      <trkpt lat="50.46071" lon="1.58659">
        <ele>12.523</ele>
        <time>2019-11-17T12:19:12.001Z</time>
      </trkpt>
      <trkpt lat="50.46108" lon="1.58416">
        <ele>12.269</ele>
        <time>2019-11-17T12:19:42.001Z</time>
      </trkpt>
      <trkpt lat="50.46151" lon="1.58145">
        <ele>11.572</ele>
        <time>2019-11-17T12:20:15.001Z</time>
      </trkpt>
      <trkpt lat="50.4623" lon="1.57948">
        <ele>13.621</ele>
        <time>2019-11-17T12:20:48.001Z</time>
      </trkpt>
      <trkpt lat="50.46365" lon="1.57853">
        <ele>16.418</ele>
        <time>2019-11-17T12:21:18.001Z</time>
      </trkpt>
      <trkpt lat="50.46489" lon="1.57769">
        <ele>15.506</ele>
        <time>2019-11-17T12:21:51.001Z</time>
      </trkpt>
    </trkseg>
  </trk>
</gpx>